createdAt,value
2019-03-24T00:00:26.788Z,20.1
2019-03-24T00:01:15.912Z,20.1
2019-03-24T00:02:06.619Z,20
2019-03-24T00:02:56.917Z,20
2019-03-24T00:03:46.725Z,20
2019-03-24T00:04:36.194Z,19.9
2019-03-24T00:05:26.512Z,19.9
2019-03-24T00:06:17.690Z,19.8
2019-03-24T00:07:06.627Z,19.8
2019-03-24T00:07:59.338Z,19.7
2019-03-24T00:08:47.589Z,19.7
2019-03-24T00:09:38.199Z,19.6
2019-03-24T00:10:27.164Z,19.6
2019-03-24T00:11:17.432Z,19.6
2019-03-24T00:12:07.564Z,19.5
2019-03-24T00:12:57.118Z,19.5
2019-03-24T00:13:47.684Z,19.4
2019-03-24T00:14:38.314Z,19.4
2019-03-24T00:15:36.428Z,19.4
2019-03-24T00:16:18.194Z,19.3
2019-03-24T00:17:08.459Z,19.3
2019-03-24T00:17:56.094Z,19.3
2019-03-24T00:18:47.820Z,19.2
2019-03-24T00:19:38.658Z,19.1
2019-03-24T00:20:28.759Z,19.1
2019-03-24T00:21:17.649Z,19.1
2019-03-24T00:22:08.289Z,19.2
2019-03-24T00:22:58.123Z,19.1
2019-03-24T00:23:49.241Z,19.2
2019-03-24T00:24:38.729Z,19.3
2019-03-24T00:25:28.535Z,19.3
2019-03-24T00:26:18.603Z,19.3
2019-03-24T00:27:08.143Z,19.4
2019-03-24T00:27:58.203Z,19.4
2019-03-24T00:28:49.373Z,19.5
2019-03-24T00:29:38.533Z,19.6
2019-03-24T00:30:28.375Z,19.7
2019-03-24T00:31:18.996Z,19.8
2019-03-24T00:32:08.758Z,19.8
2019-03-24T00:32:58.788Z,19.9
2019-03-24T00:33:48.613Z,19.9
2019-03-24T00:34:38.163Z,20
2019-03-24T00:35:29.017Z,20.1
2019-03-24T00:36:18.542Z,20.2
2019-03-24T00:37:09.413Z,20.3
2019-03-24T00:38:00.238Z,20.3
2019-03-24T00:38:49.255Z,20.2
2019-03-24T00:39:39.555Z,20.1
2019-03-24T00:40:29.612Z,20.1
2019-03-24T00:41:19.395Z,20
2019-03-24T00:42:10.055Z,20
2019-03-24T00:42:59.545Z,20
2019-03-24T00:43:50.399Z,20
2019-03-24T00:44:39.642Z,20
2019-03-24T00:45:41.713Z,20
2019-03-24T00:46:20.017Z,20.1
2019-03-24T00:47:09.272Z,20.1
2019-03-24T00:48:00.482Z,20.1
2019-03-24T00:48:50.552Z,20.1
2019-03-24T00:49:39.999Z,20.1
2019-03-24T00:50:30.624Z,20
2019-03-24T00:51:20.372Z,19.9
2019-03-24T00:52:10.752Z,19.9
2019-03-24T00:52:59.192Z,19.9
2019-03-24T00:53:50.052Z,19.9
2019-03-24T00:54:40.104Z,19.9
2019-03-24T00:55:30.396Z,19.8
2019-03-24T00:56:20.207Z,19.8
2019-03-24T00:57:10.264Z,19.8
2019-03-24T00:58:00.606Z,19.7
2019-03-24T00:58:50.509Z,19.7
2019-03-24T00:59:41.584Z,19.7
2019-03-24T01:00:30.501Z,19.6
2019-03-24T01:01:20.887Z,19.6
2019-03-24T01:02:11.759Z,19.5
2019-03-24T01:03:01.569Z,19.4
2019-03-24T01:03:50.756Z,19.4
2019-03-24T01:04:42.191Z,19.4
2019-03-24T01:05:29.788Z,19.3
2019-03-24T01:06:20.398Z,19.3
2019-03-24T01:07:12.146Z,19.3
2019-03-24T01:08:02.451Z,19.2
2019-03-24T01:08:51.388Z,19.2
2019-03-24T01:09:41.478Z,19.1
2019-03-24T01:10:30.693Z,19.1
2019-03-24T01:11:21.570Z,19.1
2019-03-24T01:12:11.644Z,19.1
2019-03-24T01:13:01.713Z,19.1
2019-03-24T01:13:52.631Z,19.1
2019-03-24T01:14:42.113Z,19.1
2019-03-24T01:15:32.395Z,19.1
2019-03-24T01:16:22.578Z,19.1
2019-03-24T01:17:12.544Z,19.2
2019-03-24T01:18:04.061Z,19.3
2019-03-24T01:18:52.412Z,19.4
2019-03-24T01:19:42.438Z,19.4
2019-03-24T01:20:32.265Z,19.4
2019-03-24T01:21:21.495Z,19.5
2019-03-24T01:22:11.523Z,19.6
2019-03-24T01:23:02.580Z,19.6
2019-03-24T01:23:52.181Z,19.8
2019-03-24T01:24:43.080Z,19.8
2019-03-24T01:25:33.489Z,19.8
2019-03-24T01:26:22.950Z,19.9
2019-03-24T01:27:13.070Z,20
2019-03-24T01:28:02.502Z,20.1
2019-03-24T01:28:52.305Z,20.1
2019-03-24T01:29:43.160Z,20.1
2019-03-24T01:30:33.255Z,20
2019-03-24T01:31:23.309Z,19.9
2019-03-24T01:32:13.624Z,19.9
2019-03-24T01:33:02.565Z,19.9
2019-03-24T01:33:53.457Z,19.9
2019-03-24T01:34:42.984Z,19.9
2019-03-24T01:35:33.915Z,19.9
2019-03-24T01:36:23.667Z,19.9
2019-03-24T01:37:14.007Z,19.9
2019-03-24T01:38:04.044Z,19.9
2019-03-24T01:38:54.428Z,19.9
2019-03-24T01:39:44.479Z,19.9
2019-03-24T01:40:34.249Z,19.9
2019-03-24T01:41:24.922Z,19.9
2019-03-24T01:42:14.385Z,19.9
2019-03-24T01:43:04.511Z,19.9
2019-03-24T01:43:53.963Z,19.9
2019-03-24T01:44:43.526Z,19.8
2019-03-24T01:45:33.606Z,19.8
2019-03-24T01:46:23.579Z,19.8
2019-03-24T01:47:14.194Z,19.8
2019-03-24T01:48:05.618Z,19.7
2019-03-24T01:48:55.113Z,19.7
2019-03-24T01:49:45.159Z,19.6
2019-03-24T01:50:34.981Z,19.6
2019-03-24T01:51:25.036Z,19.6
2019-03-24T01:52:14.252Z,19.5
2019-03-24T01:53:05.163Z,19.4
2019-03-24T01:53:56.091Z,19.4
2019-03-24T01:54:44.741Z,19.4
2019-03-24T01:55:35.906Z,19.4
2019-03-24T01:56:25.944Z,19.3
2019-03-24T01:57:15.732Z,19.3
2019-03-24T01:58:05.255Z,19.2
2019-03-24T01:58:55.838Z,19.2
2019-03-24T01:59:45.085Z,19.1
2019-03-24T02:00:36.568Z,19.1
2019-03-24T02:01:25.205Z,19.1
2019-03-24T02:02:15.613Z,19
2019-03-24T02:03:05.636Z,19
2019-03-24T02:03:56.596Z,19
2019-03-24T02:04:46.055Z,19
2019-03-24T02:05:36.833Z,19
2019-03-24T02:06:25.169Z,19
2019-03-24T02:07:15.738Z,19.1
2019-03-24T02:08:06.238Z,19.1
2019-03-24T02:08:56.282Z,19.1
2019-03-24T02:09:46.412Z,19.2
2019-03-24T02:10:35.136Z,19.3
2019-03-24T02:11:27.059Z,19.3
2019-03-24T02:12:16.031Z,19.3
2019-03-24T02:13:05.325Z,19.3
2019-03-24T02:13:56.645Z,19.4
2019-03-24T02:14:46.837Z,19.4
2019-03-24T02:15:36.862Z,19.5
2019-03-24T02:16:26.622Z,19.5
2019-03-24T02:17:15.878Z,19.5
2019-03-24T02:18:06.508Z,19.5
2019-03-24T02:18:57.126Z,19.5
2019-03-24T02:19:46.077Z,19.6
2019-03-24T02:20:35.882Z,19.5
2019-03-24T02:21:26.887Z,19.5
2019-03-24T02:22:16.804Z,19.6
2019-03-24T02:23:06.842Z,19.6
2019-03-24T02:23:56.639Z,19.7
2019-03-24T02:24:47.540Z,19.7
2019-03-24T02:25:36.550Z,19.8
2019-03-24T02:26:25.502Z,19.9
2019-03-24T02:27:16.890Z,19.9
2019-03-24T02:28:06.736Z,20
2019-03-24T02:28:57.077Z,20.1
2019-03-24T02:29:46.317Z,20.1
2019-03-24T02:30:37.185Z,20.2
2019-03-24T02:31:27.722Z,20.2
2019-03-24T02:32:18.037Z,20.1
2019-03-24T02:33:07.545Z,20
2019-03-24T02:33:57.280Z,20
2019-03-24T02:34:47.446Z,20
2019-03-24T02:35:37.478Z,19.9
2019-03-24T02:36:26.199Z,19.9
2019-03-24T02:37:17.260Z,19.9
2019-03-24T02:38:07.344Z,19.9
2019-03-24T02:38:58.216Z,19.9
2019-03-24T02:39:48.748Z,20
2019-03-24T02:40:37.447Z,20
2019-03-24T02:41:28.028Z,20
2019-03-24T02:42:18.342Z,20
2019-03-24T02:43:07.930Z,19.9
2019-03-24T02:43:57.933Z,19.9
2019-03-24T02:44:48.285Z,19.9
2019-03-24T02:45:38.875Z,19.9
2019-03-24T02:46:33.305Z,19.9
2019-03-24T02:47:18.325Z,19.8
2019-03-24T02:48:08.894Z,19.8
2019-03-24T02:48:58.566Z,19.8
2019-03-24T02:49:47.885Z,19.8
2019-03-24T02:50:37.796Z,19.8
2019-03-24T02:51:28.538Z,19.7
2019-03-24T02:52:19.686Z,19.6
2019-03-24T02:53:09.198Z,19.6
2019-03-24T02:53:58.375Z,19.6
2019-03-24T02:54:50.186Z,19.5
2019-03-24T02:55:38.744Z,19.4
2019-03-24T02:56:29.618Z,19.4
2019-03-24T02:57:19.492Z,19.4
2019-03-24T02:58:09.456Z,19.3
2019-03-24T02:59:00.142Z,19.3
2019-03-24T02:59:49.815Z,19.3
2019-03-24T03:00:40.200Z,19.3
2019-03-24T03:01:30.510Z,19.3
2019-03-24T03:02:20.307Z,19.3
2019-03-24T03:03:09.618Z,19.3
2019-03-24T03:04:01.337Z,19.3
2019-03-24T03:07:30.831Z,19.4
2019-03-24T03:08:20.216Z,19.5
2019-03-24T03:09:10.165Z,19.6
2019-03-24T03:10:01.482Z,19.7
2019-03-24T03:10:50.869Z,19.7
2019-03-24T03:11:41.869Z,19.8
2019-03-24T03:12:30.461Z,19.8
2019-03-24T03:13:20.644Z,19.9
2019-03-24T03:14:10.738Z,19.9
2019-03-24T03:15:01.512Z,20
2019-03-24T03:15:51.959Z,20.1
2019-03-24T03:16:48.141Z,20.1
2019-03-24T03:17:32.165Z,20
2019-03-24T03:18:21.056Z,20
2019-03-24T03:19:11.674Z,19.9
2019-03-24T03:20:03.551Z,19.9
2019-03-24T03:20:52.878Z,19.8
2019-03-24T03:21:42.414Z,19.8
2019-03-24T03:22:31.939Z,19.8
2019-03-24T03:23:22.534Z,19.8
2019-03-24T03:24:12.034Z,19.8
2019-03-24T03:25:02.161Z,19.8
2019-03-24T03:25:52.138Z,19.8
2019-03-24T03:26:42.693Z,19.8
2019-03-24T03:27:31.111Z,19.9
2019-03-24T03:28:22.844Z,19.9
2019-03-24T03:29:12.757Z,19.9
2019-03-24T03:30:02.335Z,19.9
2019-03-24T03:30:53.392Z,19.8
2019-03-24T03:31:43.648Z,19.8
2019-03-24T03:32:32.885Z,19.8
2019-03-24T03:33:23.444Z,19.8
2019-03-24T03:34:14.005Z,19.8
2019-03-24T03:35:04.221Z,19.8
2019-03-24T03:35:53.531Z,19.7
2019-03-24T03:36:43.764Z,19.7
2019-03-24T03:37:33.471Z,19.6
2019-03-24T03:38:24.421Z,19.5
2019-03-24T03:39:14.120Z,19.4
2019-03-24T03:40:09.313Z,19.4
2019-03-24T03:40:54.265Z,19.3
2019-03-24T03:41:43.831Z,19.3
2019-03-24T03:42:33.950Z,19.3
2019-03-24T03:43:23.947Z,19.3
2019-03-24T03:44:13.463Z,19.2
2019-03-24T03:45:03.895Z,19.2
2019-03-24T03:45:54.217Z,19.1
2019-03-24T03:46:58.006Z,19.1
2019-03-24T03:47:33.428Z,19.2
2019-03-24T03:48:24.585Z,19.3
2019-03-24T03:49:14.511Z,19.3
2019-03-24T03:50:04.384Z,19.3
2019-03-24T03:50:54.264Z,19.3
2019-03-24T03:51:44.035Z,19.3
2019-03-24T03:52:33.198Z,19.3
2019-03-24T03:53:24.446Z,19.4
2019-03-24T03:54:14.965Z,19.4
2019-03-24T03:55:04.978Z,19.5
2019-03-24T03:55:54.451Z,19.6
2019-03-24T03:56:44.217Z,19.6
2019-03-24T03:57:34.715Z,19.6
2019-03-24T03:58:24.747Z,19.7
2019-03-24T03:59:14.307Z,19.8
2019-03-24T04:00:05.342Z,19.8
2019-03-24T04:00:55.601Z,19.9
2019-03-24T04:01:44.456Z,19.9
2019-03-24T04:02:34.800Z,19.8
2019-03-24T04:03:25.386Z,19.8
2019-03-24T04:04:15.319Z,19.8
2019-03-24T04:05:04.517Z,19.7
2019-03-24T04:05:54.755Z,19.7
2019-03-24T04:06:44.052Z,19.7
2019-03-24T04:07:34.241Z,19.7
2019-03-24T04:08:25.578Z,19.7
2019-03-24T04:09:14.833Z,19.6
2019-03-24T04:10:05.546Z,19.6
2019-03-24T04:10:55.947Z,19.7
2019-03-24T04:11:45.292Z,19.7
2019-03-24T04:12:36.385Z,19.8
2019-03-24T04:13:25.104Z,19.8
2019-03-24T04:14:16.421Z,19.7
2019-03-24T04:15:06.296Z,19.7
2019-03-24T04:15:55.818Z,19.7
2019-03-24T04:16:46.123Z,19.6
2019-03-24T04:17:36.192Z,19.6
2019-03-24T04:18:25.782Z,19.6
2019-03-24T04:19:15.437Z,19.6
2019-03-24T04:20:06.569Z,19.5
2019-03-24T04:20:56.976Z,19.5
2019-03-24T04:21:45.903Z,19.4
2019-03-24T04:22:36.908Z,19.4
2019-03-24T04:23:27.198Z,19.4
2019-03-24T04:24:16.953Z,19.3
2019-03-24T04:25:07.013Z,19.3
2019-03-24T04:25:56.116Z,19.3
2019-03-24T04:26:46.587Z,19.2
2019-03-24T04:27:37.260Z,19.1
2019-03-24T04:28:25.132Z,19.1
2019-03-24T04:29:15.440Z,19.1
2019-03-24T04:30:05.014Z,19.1
2019-03-24T04:30:56.084Z,19
2019-03-24T04:31:47.212Z,19.1
2019-03-24T04:32:36.522Z,19.1
2019-03-24T04:33:26.570Z,19.1
2019-03-24T04:34:16.450Z,19.1
2019-03-24T04:35:06.888Z,19.1
2019-03-24T04:35:57.433Z,19.1
2019-03-24T04:36:46.420Z,19.2
2019-03-24T04:37:40.429Z,19.2
2019-03-24T04:38:27.878Z,19.2
2019-03-24T04:39:16.665Z,19.3
2019-03-24T04:40:07.207Z,19.4
2019-03-24T04:40:56.575Z,19.5
2019-03-24T04:41:47.322Z,19.6
2019-03-24T04:42:36.347Z,19.6
2019-03-24T04:43:27.570Z,19.7
2019-03-24T04:44:18.312Z,19.8
2019-03-24T04:45:06.999Z,19.8
2019-03-24T04:45:57.834Z,19.8
2019-03-24T04:46:47.097Z,19.7
2019-03-24T04:47:37.691Z,19.6
2019-03-24T04:48:27.239Z,19.6
2019-03-24T04:49:18.289Z,19.7
2019-03-24T04:50:07.906Z,19.6
2019-03-24T04:50:58.284Z,19.7
2019-03-24T04:51:47.719Z,19.7
2019-03-24T04:52:37.799Z,19.7
2019-03-24T04:53:29.446Z,19.7
2019-03-24T04:54:17.353Z,19.8
2019-03-24T04:55:08.279Z,19.8
2019-03-24T04:55:57.573Z,19.8
2019-03-24T04:56:48.651Z,19.9
2019-03-24T04:57:38.925Z,19.9
2019-03-24T04:58:27.135Z,20
2019-03-24T04:59:17.208Z,20.1
2019-03-24T05:00:08.592Z,19.9
2019-03-24T05:00:58.250Z,19.9
2019-03-24T05:01:47.369Z,19.8
2019-03-24T05:02:38.934Z,19.8
2019-03-24T05:03:28.890Z,19.8
2019-03-24T05:04:19.084Z,19.7
2019-03-24T05:05:09.448Z,19.7
2019-03-24T05:05:59.131Z,19.7
2019-03-24T05:06:49.378Z,19.7
2019-03-24T05:07:38.338Z,19.7
2019-03-24T05:08:29.521Z,19.8
2019-03-24T05:09:19.811Z,19.8
2019-03-24T05:10:09.622Z,19.8
2019-03-24T05:10:59.122Z,19.8
2019-03-24T05:11:48.921Z,19.8
2019-03-24T05:12:38.965Z,19.7
2019-03-24T05:13:29.560Z,19.6
2019-03-24T05:14:19.910Z,19.6
2019-03-24T05:15:09.808Z,19.6
2019-03-24T05:15:59.329Z,19.5
2019-03-24T05:16:49.542Z,19.5
2019-03-24T05:17:39.880Z,19.4
2019-03-24T05:18:30.200Z,19.4
2019-03-24T05:19:20.274Z,19.3
2019-03-24T05:20:10.262Z,19.3
2019-03-24T05:20:59.042Z,19.3
2019-03-24T05:21:50.400Z,19.2
2019-03-24T05:22:40.014Z,19.1
2019-03-24T05:23:29.672Z,19.1
2019-03-24T05:24:20.392Z,19.1
2019-03-24T05:25:10.499Z,19
2019-03-24T05:26:00.211Z,19
2019-03-24T05:26:50.756Z,18.9
2019-03-24T05:27:41.167Z,18.9
2019-03-24T05:28:30.129Z,18.9
2019-03-24T05:29:21.212Z,18.9
2019-03-24T05:30:11.004Z,18.9
2019-03-24T05:31:00.762Z,18.9
2019-03-24T05:31:51.114Z,19
2019-03-24T05:32:41.427Z,19.1
2019-03-24T05:33:30.734Z,19.1
2019-03-24T05:34:21.045Z,19.1
2019-03-24T05:35:12.007Z,19.1
2019-03-24T05:36:01.287Z,19.2
2019-03-24T05:36:51.466Z,19.3
2019-03-24T05:37:41.284Z,19.3
2019-03-24T05:38:31.711Z,19.4
2019-03-24T05:39:20.921Z,19.4
2019-03-24T05:40:10.472Z,19.6
2019-03-24T05:41:01.301Z,19.6
2019-03-24T05:41:51.611Z,19.7
2019-03-24T05:42:41.196Z,19.7
2019-03-24T05:43:32.323Z,19.8
2019-03-24T05:44:21.894Z,19.8
2019-03-24T05:45:12.743Z,19.8
2019-03-24T05:46:02.439Z,19.7
2019-03-24T05:46:51.921Z,19.6
2019-03-24T05:47:46.103Z,19.6
2019-03-24T05:48:33.255Z,19.6
2019-03-24T05:49:22.355Z,19.6
2019-03-24T05:50:11.896Z,19.6
2019-03-24T05:51:03.106Z,19.6
2019-03-24T05:51:52.820Z,19.6
2019-03-24T05:52:42.664Z,19.6
2019-03-24T05:53:33.277Z,19.6
2019-03-24T05:54:22.516Z,19.6
2019-03-24T05:55:12.553Z,19.6
2019-03-24T05:56:03.751Z,19.6
2019-03-24T05:56:52.670Z,19.6
2019-03-24T05:57:43.583Z,19.6
2019-03-24T05:58:33.918Z,19.5
2019-03-24T05:59:23.750Z,19.5
2019-03-24T06:00:13.817Z,19.4
2019-03-24T06:01:03.253Z,19.4
2019-03-24T06:01:53.273Z,19.3
2019-03-24T06:02:43.110Z,19.3
2019-03-24T06:05:30.790Z,19.2
2019-03-24T06:06:20.575Z,19.1
2019-03-24T06:07:10.652Z,19.1
2019-03-24T06:08:01.277Z,19.1
2019-03-24T06:08:52.095Z,19.1
2019-03-24T06:09:41.397Z,19.1
2019-03-24T06:10:31.187Z,19
2019-03-24T06:11:20.127Z,18.9
2019-03-24T06:12:10.745Z,18.9
2019-03-24T06:13:01.664Z,18.9
2019-03-24T06:13:51.263Z,18.9
2019-03-24T06:14:41.684Z,18.9
2019-03-24T06:15:31.507Z,18.9
2019-03-24T06:16:21.302Z,18.9
2019-03-24T06:17:12.269Z,18.9
2019-03-24T06:18:01.699Z,19
2019-03-24T06:18:51.514Z,19.1
2019-03-24T06:19:40.709Z,19.1
2019-03-24T06:20:31.931Z,19.1
2019-03-24T06:22:12.331Z,19.3
2019-03-24T06:23:01.286Z,19.3
2019-03-24T06:23:51.665Z,19.4
2019-03-24T06:24:42.224Z,19.6
2019-03-24T06:25:36.317Z,19.6
2019-03-24T06:26:22.344Z,19.8
2019-03-24T06:27:11.631Z,19.8
2019-03-24T06:28:03.046Z,19.8
2019-03-24T07:05:30.450Z,18.8
2019-03-24T07:06:19.708Z,18.9
2019-03-24T07:07:10.897Z,18.9
2019-03-24T07:08:01.760Z,19
2019-03-24T07:08:50.165Z,19.1
2019-03-24T07:09:40.221Z,19.2
2019-03-24T07:10:31.142Z,19.2
2019-03-24T07:11:22.967Z,19.3
2019-03-24T07:12:10.943Z,19.4
2019-03-24T07:13:01.872Z,19.6
2019-03-24T07:13:51.907Z,19.5
2019-03-24T07:14:41.409Z,19.5
2019-03-24T07:15:31.185Z,19.4
2019-03-24T07:16:24.077Z,19.4
2019-03-24T07:17:11.847Z,19.4
2019-03-24T07:18:11.645Z,19.4
2019-03-24T07:18:51.179Z,19.4
2019-03-24T07:19:40.937Z,19.3
2019-03-24T07:20:32.416Z,19.3
2019-03-24T07:21:21.921Z,19.4
2019-03-24T07:22:14.280Z,19.4
2019-03-24T07:23:02.102Z,19.4
2019-03-24T07:23:51.817Z,19.4
2019-03-24T07:24:41.832Z,19.4
2019-03-24T07:25:30.870Z,19.4
2019-03-24T07:26:22.509Z,19.4
2019-03-24T07:27:12.044Z,19.4
2019-03-24T07:28:02.367Z,19.3
2019-03-24T07:28:51.407Z,19.3
2019-03-24T07:29:43.844Z,19.3
2019-03-24T07:30:32.307Z,19.3
2019-03-24T07:31:22.646Z,19.3
2019-03-24T07:32:11.671Z,19.2
2019-03-24T07:33:03.037Z,19.2
2019-03-24T07:33:52.039Z,19.1
2019-03-24T07:34:41.556Z,19.1
2019-03-24T07:35:32.706Z,19.1
2019-03-24T07:36:22.259Z,19
2019-03-24T07:37:12.838Z,18.9
2019-03-24T07:38:03.177Z,18.9
2019-03-24T07:38:52.956Z,18.9
2019-03-24T07:39:42.752Z,18.8
2019-03-24T07:40:31.639Z,18.8
2019-03-24T07:41:23.093Z,18.8
2019-03-24T07:42:14.966Z,18.8
2019-03-24T07:43:03.227Z,18.8
2019-03-24T07:43:52.427Z,18.8
2019-03-24T07:44:42.737Z,18.8
2019-03-24T07:47:14.037Z,18.6
2019-03-24T07:48:04.222Z,18.6
2019-03-24T07:48:54.458Z,18.6
2019-03-24T07:49:43.186Z,18.5
2019-03-24T07:50:34.192Z,18.4
2019-03-24T07:51:24.123Z,18.4
2019-03-24T07:52:13.919Z,18.4
2019-03-24T07:53:03.634Z,18.4
2019-03-24T07:53:54.793Z,18.3
2019-03-24T07:54:44.590Z,18.3
2019-03-24T07:55:34.141Z,18.3
2019-03-24T07:56:23.603Z,18.3
2019-03-24T07:57:14.053Z,18.2
2019-03-24T07:58:04.645Z,18.2
2019-03-24T07:58:55.275Z,18.1
2019-03-24T07:59:44.697Z,18.1
2019-03-24T08:00:34.715Z,18.1
2019-03-24T08:01:24.232Z,18
2019-03-24T08:02:14.619Z,18
2019-03-24T08:03:05.003Z,17.9
2019-03-24T08:03:53.880Z,17.9
2019-03-24T08:04:45.300Z,17.9
2019-03-24T08:05:35.145Z,17.8
2019-03-24T08:06:25.424Z,17.8
2019-03-24T08:07:15.254Z,17.8
2019-03-24T08:08:05.015Z,17.8
2019-03-24T08:08:54.487Z,17.8
2019-03-24T08:09:46.332Z,17.7
2019-03-24T08:10:34.919Z,17.7
2019-03-24T08:11:24.997Z,17.7
2019-03-24T08:12:15.044Z,17.6
2019-03-24T08:13:06.497Z,17.6
2019-03-24T08:14:02.397Z,17.6
2019-03-24T08:14:46.578Z,17.6
2019-03-24T08:15:36.190Z,17.5
2019-03-24T08:16:24.832Z,17.5
2019-03-24T08:17:14.816Z,17.4
2019-03-24T08:18:06.269Z,17.4
2019-03-24T08:18:56.051Z,17.4
2019-03-24T08:19:45.919Z,17.4
2019-03-24T08:20:35.211Z,17.4
2019-03-24T08:21:25.169Z,17.4
2019-03-24T08:22:15.018Z,17.3
2019-03-24T08:23:06.653Z,17.3
2019-03-24T08:23:56.421Z,17.3
2019-03-24T08:24:46.257Z,17.3
2019-03-24T08:25:34.399Z,17.2
2019-03-24T08:26:25.053Z,17.2
2019-03-24T08:27:16.209Z,17.2
2019-03-24T08:28:05.713Z,17.1
2019-03-24T08:28:57.056Z,17.1
2019-03-24T08:29:47.466Z,17.1
2019-03-24T08:30:38.783Z,17.1
2019-03-24T08:31:27.578Z,17.1
2019-03-24T08:32:16.764Z,17.1
2019-03-24T08:33:06.611Z,17.1
2019-03-24T08:36:27.079Z,16.9
2019-03-24T08:37:17.469Z,16.9
2019-03-24T08:38:07.539Z,16.9
2019-03-24T08:38:57.603Z,16.9
2019-03-24T08:39:47.134Z,16.9
2019-03-24T08:40:38.264Z,16.9
2019-03-24T08:41:27.144Z,16.8
2019-03-24T08:42:17.818Z,16.8
2019-03-24T08:43:08.095Z,16.8
2019-03-24T08:43:57.422Z,16.8
2019-03-24T08:44:48.497Z,16.8
2019-03-24T08:45:37.990Z,16.8
2019-03-24T08:46:27.500Z,16.8
2019-03-24T08:47:18.135Z,16.8
2019-03-24T08:48:07.919Z,16.7
2019-03-24T08:48:58.799Z,16.7
2019-03-24T08:49:48.597Z,16.7
2019-03-24T08:50:38.844Z,16.7
2019-03-24T08:51:27.917Z,16.7
2019-03-24T08:52:17.704Z,16.6
2019-03-24T08:53:08.267Z,16.6
2019-03-24T08:53:58.334Z,16.6
2019-03-24T08:54:48.122Z,16.6
2019-03-24T08:55:38.825Z,16.6
2019-03-24T08:56:29.321Z,16.6
2019-03-24T08:57:17.725Z,16.5
2019-03-24T08:58:09.567Z,16.5
2019-03-24T08:58:58.128Z,16.5
2019-03-24T08:59:49.647Z,16.5
2019-03-24T09:00:40.446Z,16.4
2019-03-24T09:01:28.852Z,16.4
2019-03-24T09:02:18.709Z,16.4
2019-03-24T09:03:09.832Z,16.4
2019-03-24T09:03:58.933Z,16.4
2019-03-24T09:04:49.676Z,16.4
2019-03-24T09:05:42.317Z,16.4
2019-03-24T09:06:29.521Z,16.4
2019-03-24T09:07:19.635Z,16.4
2019-03-24T09:08:09.752Z,16.3
2019-03-24T09:08:59.137Z,16.3
2019-03-24T09:09:49.475Z,16.3
2019-03-24T09:10:38.458Z,16.3
2019-03-24T09:11:40.516Z,16.3
2019-03-24T09:12:20.478Z,16.3
2019-03-24T09:13:09.993Z,16.3
2019-03-24T09:14:00.070Z,16.3
2019-03-24T09:14:50.701Z,16.3
2019-03-24T09:15:40.195Z,16.2
2019-03-24T09:16:30.045Z,16.2
2019-03-24T09:17:19.825Z,16.2
2019-03-24T09:18:09.393Z,16.2
2019-03-24T09:19:02.705Z,16.2
2019-03-24T09:19:50.770Z,16.1
2019-03-24T09:20:51.248Z,16.1
2019-03-24T09:21:30.573Z,16.1
2019-03-24T09:22:20.226Z,16.1
2019-03-24T09:23:12.763Z,16.1
2019-03-24T09:24:00.329Z,16.1
2019-03-24T09:24:50.339Z,16.1
2019-03-24T09:25:42.095Z,16.1
2019-03-24T09:26:30.422Z,16.1
2019-03-24T09:27:20.788Z,16.1
2019-03-24T09:28:13.723Z,16
2019-03-24T09:29:03.578Z,16
2019-03-24T09:29:51.548Z,16
2019-03-24T09:30:41.120Z,16
2019-03-24T09:31:30.390Z,16
2019-03-24T09:32:21.007Z,16
2019-03-24T09:33:11.315Z,16
2019-03-24T09:34:01.408Z,15.9
2019-03-24T09:34:51.697Z,15.9
2019-03-24T09:35:41.815Z,15.9
2019-03-24T09:36:31.727Z,15.9
2019-03-24T09:37:21.795Z,15.9
2019-03-24T09:38:11.602Z,15.9
2019-03-24T09:39:01.898Z,15.9
2019-03-24T09:39:51.720Z,15.9
2019-03-24T09:40:42.072Z,15.9
2019-03-24T09:41:32.662Z,15.9
2019-03-24T09:42:22.144Z,15.9
2019-03-24T09:43:11.981Z,15.9
2019-03-24T09:44:01.249Z,15.9
2019-03-24T09:44:51.844Z,15.8
2019-03-24T09:45:41.974Z,15.8
2019-03-24T09:46:33.014Z,15.8
2019-03-24T09:47:22.199Z,15.8
2019-03-24T09:48:12.849Z,15.8
2019-03-24T09:49:12.699Z,15.8
2019-03-24T09:49:52.105Z,15.8
2019-03-24T09:50:42.926Z,15.8
2019-03-24T09:51:32.792Z,15.8
2019-03-24T09:52:22.578Z,15.8
2019-03-24T09:53:12.999Z,15.8
2019-03-24T09:54:03.301Z,15.7
2019-03-24T09:54:52.788Z,15.7
2019-03-24T09:55:43.413Z,15.8
2019-03-24T09:56:32.881Z,15.7
2019-03-24T09:57:23.218Z,15.7
2019-03-24T09:58:12.491Z,15.7
2019-03-24T09:59:03.083Z,15.7
2019-03-24T09:59:53.648Z,15.7
2019-03-24T10:00:43.476Z,15.7
2019-03-24T10:01:34.091Z,15.6
2019-03-24T10:02:24.123Z,15.6
2019-03-24T10:03:13.374Z,15.6
2019-03-24T10:04:03.963Z,15.6
2019-03-24T10:06:30.055Z,15.6
2019-03-24T10:07:19.895Z,15.6
2019-03-24T10:08:10.216Z,15.6
2019-03-24T10:09:00.802Z,15.6
2019-03-24T10:09:50.243Z,15.6
2019-03-24T10:10:40.647Z,15.6
2019-03-24T10:11:30.970Z,15.6
2019-03-24T10:12:21.107Z,15.6
2019-03-24T10:13:11.406Z,15.6
2019-03-24T10:14:00.943Z,15.6
2019-03-24T10:14:51.307Z,15.6
2019-03-24T10:15:41.388Z,15.6
2019-03-24T10:16:31.467Z,15.6
2019-03-24T10:17:21.287Z,15.6
2019-03-24T10:18:11.769Z,15.6
2019-03-24T10:19:01.332Z,15.5
2019-03-24T10:19:51.677Z,15.5
2019-03-24T10:20:41.669Z,15.5
2019-03-24T10:21:32.259Z,15.5
2019-03-24T10:22:20.644Z,15.5
2019-03-24T10:23:12.681Z,15.5
2019-03-24T10:24:01.937Z,15.5
2019-03-24T10:24:52.251Z,15.5
2019-03-24T10:25:41.714Z,15.5
2019-03-24T10:26:32.331Z,15.5
2019-03-24T10:27:21.619Z,15.4
2019-03-24T10:28:12.802Z,15.5
2019-03-24T10:29:01.214Z,15.4
2019-03-24T10:29:51.750Z,15.4
2019-03-24T10:30:41.336Z,15.4
2019-03-24T10:31:31.951Z,15.4
2019-03-24T10:32:22.793Z,15.4
2019-03-24T10:33:12.116Z,15.4
2019-03-24T10:34:03.226Z,15.4
2019-03-24T10:34:52.944Z,15.4
2019-03-24T10:35:42.477Z,15.4
2019-03-24T10:36:32.318Z,15.4
2019-03-24T10:37:23.191Z,15.4
2019-03-24T10:38:11.828Z,15.4
2019-03-24T10:39:17.615Z,15.4
2019-03-24T10:39:53.179Z,15.4
2019-03-24T10:40:42.867Z,15.4
2019-03-24T10:41:32.056Z,15.4
2019-03-24T10:42:22.656Z,15.4
2019-03-24T10:43:13.913Z,15.4
2019-03-24T10:44:02.818Z,15.4
2019-03-24T10:44:52.288Z,15.4
2019-03-24T10:45:43.737Z,15.4
2019-03-24T10:46:32.948Z,15.4
2019-03-24T10:47:22.516Z,15.4
2019-03-24T10:48:13.361Z,15.4
2019-03-24T10:49:03.432Z,15.4
2019-03-24T10:49:53.580Z,15.4
2019-03-24T10:50:44.023Z,15.3
2019-03-24T10:51:32.305Z,15.4
2019-03-24T10:52:23.662Z,15.4
2019-03-24T10:53:13.507Z,15.4
2019-03-24T10:54:03.782Z,15.3
2019-03-24T10:54:53.562Z,15.4
2019-03-24T10:55:43.803Z,15.3
2019-03-24T10:56:33.415Z,15.3
2019-03-24T10:57:24.057Z,15.3
2019-03-24T10:58:14.442Z,15.4
2019-03-24T10:59:05.227Z,15.3
2019-03-24T10:59:54.207Z,15.3
2019-03-24T11:00:44.717Z,15.3
2019-03-24T11:01:33.532Z,15.3
2019-03-24T11:02:24.987Z,15.3
2019-03-24T11:03:15.039Z,15.3
2019-03-24T11:04:04.777Z,15.3
2019-03-24T11:05:09.263Z,15.3
2019-03-24T11:05:44.954Z,15.3
2019-03-24T11:06:34.399Z,15.3
2019-03-24T11:07:25.364Z,15.3
2019-03-24T11:08:15.412Z,15.3
2019-03-24T11:09:04.399Z,15.3
2019-03-24T11:09:55.797Z,15.3
2019-03-24T11:10:44.752Z,15.3
2019-03-24T11:11:33.939Z,15.3
2019-03-24T11:12:25.136Z,15.3
2019-03-24T11:13:29.599Z,15.3
2019-03-24T11:14:06.074Z,15.3
2019-03-24T11:14:55.301Z,15.3
2019-03-24T11:15:45.660Z,15.3
2019-03-24T11:16:36.304Z,15.3
2019-03-24T11:17:24.989Z,15.3
2019-03-24T11:18:15.564Z,15.3
2019-03-24T11:19:06.164Z,15.3
2019-03-24T11:19:55.191Z,15.3
2019-03-24T11:20:45.454Z,15.3
2019-03-24T11:21:36.119Z,15.3
2019-03-24T11:22:26.136Z,15.3
2019-03-24T11:23:16.171Z,15.3
2019-03-24T11:24:06.557Z,15.3
2019-03-24T11:24:56.341Z,15.3
2019-03-24T11:25:45.288Z,15.3
2019-03-24T11:26:36.449Z,15.3
2019-03-24T11:27:26.698Z,15.3
2019-03-24T11:28:15.821Z,15.3
2019-03-24T11:29:06.636Z,15.3
2019-03-24T11:29:56.767Z,15.3
2019-03-24T11:30:46.418Z,15.3
2019-03-24T11:31:35.973Z,15.2
2019-03-24T11:32:26.431Z,15.3
2019-03-24T11:33:17.243Z,15.3
2019-03-24T11:34:07.325Z,15.2
2019-03-24T11:34:57.308Z,15.3
2019-03-24T11:35:46.000Z,15.3
2019-03-24T11:36:36.897Z,15.3
2019-03-24T11:37:27.765Z,15.2
2019-03-24T11:38:17.345Z,15.3
2019-03-24T11:39:07.910Z,15.3
2019-03-24T11:39:56.627Z,15.2
2019-03-24T11:40:47.736Z,15.2
2019-03-24T11:41:37.793Z,15.3
2019-03-24T11:42:27.268Z,15.2
2019-03-24T11:43:18.200Z,15.2
2019-03-24T11:44:07.455Z,15.2
2019-03-24T11:44:56.395Z,15.2
2019-03-24T11:45:47.897Z,15.2
2019-03-24T11:46:52.007Z,15.2
2019-03-24T11:47:39.395Z,15.2
2019-03-24T11:48:17.227Z,15.2
2019-03-24T11:49:08.142Z,15.2
2019-03-24T11:49:58.544Z,15.3
2019-03-24T11:50:47.366Z,15.3
2019-03-24T11:51:38.254Z,15.2
2019-03-24T11:52:28.059Z,15.2
2019-03-24T11:53:17.801Z,15.2
2019-03-24T11:54:08.464Z,15.2
2019-03-24T11:54:58.547Z,15.2
2019-03-24T11:55:48.365Z,15.2
2019-03-24T11:56:38.375Z,15.3